Time;durP1;ratioP1;P1;durP2;ratioP2;P2;SDS_P1;SDS_P2;PMS_P1;PMS_P2;Temp;Humidity;BMP_temperature;BMP_pressure;BME280_temperature;BME280_humidity;BME280_pressure;Samples;Min_cycle;Max_cycle;Signal;HPM_P1;HPM_P2
2021/12/25 00:01:20;;;;;;;;;;;;;;;13.47;46.82;98427.47;4477135;32;33478;-69
2021/12/25 00:03:49;;;;;;;;;;;;;;;13.08;48.01;98436.06;4473238;31;33721;-70
2021/12/25 00:06:16;;;;;;;;;;;;;;;13.43;47.14;98439.56;4475951;32;34980;-68
2021/12/25 00:08:44;;;;;;;;;;;;;;;13.50;46.80;98430.66;4472675;32;35193;-69
2021/12/25 00:11:11;;;;;;;;;;;;;;;13.56;46.50;98426.47;4473500;31;33282;-67
2021/12/25 00:13:39;;;;;;;;;;;;;;;13.15;47.54;98430.87;4465032;32;33928;-74
2021/12/25 00:16:06;;;;;;;;;;;;;;;13.61;46.44;98431.34;4470985;32;33536;-73
2021/12/25 00:18:35;;;;;;;;;;;;;;;13.57;46.47;98438.06;4468514;32;33063;-74
2021/12/25 00:21:02;;;;;;;;;;;;;;;13.23;47.53;98434.44;4469067;32;33559;-73
2021/12/25 00:23:30;;;;;;;;;;;;;;;13.85;45.94;98449.34;4472684;32;33892;-72
2021/12/25 00:26:03;;;;;;;;;;;;;;;13.66;46.48;98434.38;4477304;32;34466;-73
2021/12/25 00:36:13;;;;;;;;;;;;;;;14.06;45.18;98451.53;4468070;32;34303;-71
2021/12/25 00:38:42;;;;;;;;;;;;;;;14.18;44.75;98451.03;4473109;32;33982;-73
2021/12/25 00:41:13;;;;;;;;;;;;;;;14.04;45.02;98454.41;4471085;32;33357;-72
2021/12/25 00:43:41;;;;;;;;;;;;;;;14.19;44.86;98452.72;4469593;32;35250;-73
2021/12/25 00:46:09;;;;;;;;;;;;;;;14.07;45.04;98455.94;4468416;32;34485;-72
2021/12/25 00:48:36;;;;;;;;;;;;;;;13.79;45.61;98455.41;4475350;32;33029;-72
2021/12/25 00:51:04;;;;;;;;;;;;;;;13.95;45.23;98444.66;4473020;32;33214;-72
2021/12/25 00:53:31;;;;;;;;;;;;;;;14.13;44.67;98453.41;4467297;32;32836;-72
2021/12/25 00:55:58;;;;;;;;;;;;;;;13.82;45.70;98455.06;4466449;32;34115;-72
2021/12/25 00:58:26;;;;;;;;;;;;;;;13.74;45.65;98454.06;4464909;32;33790;-72
2021/12/25 01:00:53;;;;;;;;;;;;;;;14.13;44.94;98466.84;4466266;32;33479;-72
2021/12/25 01:03:21;;;;;;;;;;;;;;;14.13;44.87;98464.16;4475112;31;35035;-73
2021/12/25 01:05:48;;;;;;;;;;;;;;;14.15;44.80;98456.75;4469421;32;34170;-73
2021/12/25 01:08:16;;;;;;;;;;;;;;;14.47;43.99;98454.19;4473800;32;33295;-72
2021/12/25 01:10:43;;;;;;;;;;;;;;;14.35;44.38;98467.16;4465480;32;33463;-73
2021/12/25 01:13:16;;;;;;;;;;;;;;;14.13;44.84;98472.25;4471265;32;34367;-72
2021/12/25 01:15:59;;;;;;;;;;;;;;;14.34;44.28;98460.94;4467547;31;34206;-72
2021/12/25 01:21:15;;;;;;;;;;;;;;;14.57;43.97;98471.03;4469900;32;33544;-72
2021/12/25 01:26:44;;;;;;;;;;;;;;;14.09;45.11;98478.09;4467707;32;34128;-70
2021/12/25 01:29:26;;;;;;;;;;;;;;;14.43;44.25;98465.31;4466786;32;34419;-72
2021/12/25 01:32:19;;;;;;;;;;;;;;;14.22;44.63;98478.44;4471912;31;33312;-70
2021/12/25 01:48:18;;;;;;;;;;;;;;;14.01;44.94;98489.72;4467493;32;34680;-70
2021/12/25 01:50:45;;;;;;;;;;;;;;;14.24;44.33;98489.88;4468502;32;33885;-73
2021/12/25 01:53:13;;;;;;;;;;;;;;;13.56;45.99;98496.38;4474172;31;32283;-70
2021/12/25 01:55:40;;;;;;;;;;;;;;;14.21;44.54;98495.59;4476987;32;34291;-73
2021/12/25 01:58:08;;;;;;;;;;;;;;;14.16;44.60;98501.50;4473410;31;34020;-71
2021/12/25 02:00:39;;;;;;;;;;;;;;;14.15;44.70;98501.66;4469382;32;34438;-72
2021/12/25 02:03:08;;;;;;;;;;;;;;;13.88;45.14;98498.28;4467527;32;33486;-71
2021/12/25 02:05:36;;;;;;;;;;;;;;;14.10;44.59;98488.72;4468797;32;33866;-71
2021/12/25 02:08:21;;;;;;;;;;;;;;;14.14;44.51;98487.38;4465968;32;34645;-74
2021/12/25 02:10:49;;;;;;;;;;;;;;;14.22;44.47;98491.87;4475455;32;33975;-69
2021/12/25 02:13:17;;;;;;;;;;;;;;;14.04;44.96;98483.16;4471676;31;32249;-72
2021/12/25 02:15:48;;;;;;;;;;;;;;;14.14;44.75;98490.06;4471135;32;34316;-73
2021/12/25 02:20:59;;;;;;;;;;;;;;;13.80;45.55;98490.19;4470600;32;33974;-71
2021/12/25 02:23:26;;;;;;;;;;;;;;;13.89;45.43;98489.19;4466530;32;31984;-75
2021/12/25 02:25:55;;;;;;;;;;;;;;;13.92;45.22;98485.34;4466590;32;33683;-73
2021/12/25 02:28:23;;;;;;;;;;;;;;;14.14;44.81;98489.22;4467813;32;34429;-74
2021/12/25 02:30:51;;;;;;;;;;;;;;;14.42;44.08;98484.34;4474490;31;33292;-73
2021/12/25 02:33:19;;;;;;;;;;;;;;;14.55;43.64;98475.78;4475573;32;33070;-73
2021/12/25 02:35:47;;;;;;;;;;;;;;;14.37;44.08;98473.22;4467964;32;34325;-73
2021/12/25 02:38:14;;;;;;;;;;;;;;;14.46;43.93;98474.91;4467839;32;34196;-74
2021/12/25 02:40:42;;;;;;;;;;;;;;;14.36;44.18;98463.47;4480746;31;35329;-73
2021/12/25 02:43:09;;;;;;;;;;;;;;;14.44;44.15;98471.53;4476719;32;33463;-74
2021/12/25 02:45:37;;;;;;;;;;;;;;;14.50;43.82;98472.69;4468020;32;35113;-74
2021/12/25 02:48:08;;;;;;;;;;;;;;;14.44;43.78;98469.69;4468016;32;33989;-73
2021/12/25 02:50:36;;;;;;;;;;;;;;;14.05;44.70;98482.97;4470851;32;35360;-74
2021/12/25 02:53:05;;;;;;;;;;;;;;;14.53;43.35;98469.69;4474097;32;34249;-73
2021/12/25 02:55:32;;;;;;;;;;;;;;;14.58;43.02;98459.28;4466983;32;34668;-73
2021/12/25 02:57:59;;;;;;;;;;;;;;;14.39;43.51;98477.44;4477626;31;35216;-74
2021/12/25 03:00:29;;;;;;;;;;;;;;;14.20;43.90;98477.78;4470863;32;34239;-74
2021/12/25 03:02:57;;;;;;;;;;;;;;;14.11;44.11;98476.94;4473403;32;32376;-75
2021/12/25 03:05:24;;;;;;;;;;;;;;;14.05;44.20;98471.38;4468760;32;34268;-74
2021/12/25 03:07:52;;;;;;;;;;;;;;;14.12;44.10;98467.84;4475920;32;35440;-73
2021/12/25 03:10:21;;;;;;;;;;;;;;;14.23;43.68;98463.16;4474564;32;33449;-72
2021/12/25 03:15:46;;;;;;;;;;;;;;;14.44;42.79;98463.44;4457243;32;33859;-71
2021/12/25 03:18:18;;;;;;;;;;;;;;;14.07;43.29;98467.53;4471333;32;34324;-70
2021/12/25 03:20:47;;;;;;;;;;;;;;;14.18;43.14;98461.78;4466088;32;33997;-71
2021/12/25 03:23:15;;;;;;;;;;;;;;;14.28;42.75;98466.16;4472542;32;33580;-70
2021/12/25 03:25:43;;;;;;;;;;;;;;;14.40;42.47;98468.34;4473375;31;33957;-71
2021/12/25 03:28:11;;;;;;;;;;;;;;;14.30;42.73;98470.38;4470703;32;34702;-71
2021/12/25 03:30:39;;;;;;;;;;;;;;;14.31;42.26;98481.97;4470783;32;33880;-71
2021/12/25 03:33:10;;;;;;;;;;;;;;;14.35;42.27;98467.16;4474751;32;33156;-71
2021/12/25 03:35:38;;;;;;;;;;;;;;;13.87;42.78;98472.41;4467903;32;33144;-72
2021/12/25 03:38:07;;;;;;;;;;;;;;;12.98;44.96;98478.31;4474002;32;34440;-71
2021/12/25 03:40:35;;;;;;;;;;;;;;;13.26;44.95;98481.66;4473234;32;34740;-70
2021/12/25 03:43:03;;;;;;;;;;;;;;;13.25;44.36;98488.03;4472322;32;33411;-71
2021/12/25 03:45:32;;;;;;;;;;;;;;;13.12;44.87;98491.13;4465754;32;35554;-71
2021/12/25 03:58:51;;;;;;;;;;;;;;;13.76;44.02;98521.09;4473079;32;34285;-71
2021/12/25 04:04:17;;;;;;;;;;;;;;;13.92;43.38;98515.75;4478605;32;33171;-71
2021/12/25 04:07:00;;;;;;;;;;;;;;;14.04;42.88;98524.34;4471198;32;33965;-71
2021/12/25 04:09:30;;;;;;;;;;;;;;;13.92;43.42;98525.69;4475833;31;34195;-71
2021/12/25 04:11:59;;;;;;;;;;;;;;;14.03;43.00;98527.19;4469167;32;33854;-70
2021/12/25 04:14:28;;;;;;;;;;;;;;;13.78;43.54;98534.41;4465929;32;33941;-71
2021/12/25 04:16:55;;;;;;;;;;;;;;;14.00;42.88;98520.31;4465743;32;35002;-70
2021/12/25 04:19:23;;;;;;;;;;;;;;;14.02;43.24;98525.53;4478311;31;33053;-70
2021/12/25 04:21:56;;;;;;;;;;;;;;;13.66;44.56;98526.62;4472132;32;35026;-71
2021/12/25 04:24:24;;;;;;;;;;;;;;;13.80;44.33;98532.38;4471748;32;33990;-72
2021/12/25 04:26:52;;;;;;;;;;;;;;;13.97;43.99;98528.72;4475625;32;35103;-70
2021/12/25 04:47:50;;;;;;;;;;;;;;;13.86;44.58;98502.97;4470376;32;33486;-70
2021/12/25 05:02:54;;;;;;;;;;;;;;;14.21;43.65;98496.44;4468017;32;34271;-72
2021/12/25 05:05:24;;;;;;;;;;;;;;;14.16;43.54;98501.50;4473212;32;33928;-72
2021/12/25 05:07:51;;;;;;;;;;;;;;;14.09;43.33;98507.69;4471564;32;33161;-72
2021/12/25 05:10:19;;;;;;;;;;;;;;;13.74;44.48;98504.31;4476056;32;34822;-72
2021/12/25 05:12:46;;;;;;;;;;;;;;;13.92;44.09;98498.78;4471212;32;34246;-72
2021/12/25 05:15:14;;;;;;;;;;;;;;;14.09;43.29;98497.81;4458592;32;34093;-71
2021/12/25 05:17:41;;;;;;;;;;;;;;;14.23;42.82;98503.53;4465450;32;33510;-72
2021/12/25 05:20:09;;;;;;;;;;;;;;;14.19;42.90;98490.41;4470636;32;32803;-72
2021/12/25 05:22:36;;;;;;;;;;;;;;;14.15;43.03;98501.66;4473976;32;35998;-69
2021/12/25 05:25:04;;;;;;;;;;;;;;;14.12;43.14;98507.37;4474301;31;34172;-72
2021/12/25 05:27:32;;;;;;;;;;;;;;;14.04;42.65;98512.75;4473120;32;33380;-72
2021/12/25 05:29:59;;;;;;;;;;;;;;;13.92;43.10;98531.06;4467544;32;34196;-72
2021/12/25 05:32:29;;;;;;;;;;;;;;;13.77;43.68;98521.94;4474229;32;34324;-73
2021/12/25 05:34:59;;;;;;;;;;;;;;;13.90;43.22;98527.69;4471315;31;34340;-72
2021/12/25 05:37:26;;;;;;;;;;;;;;;13.73;42.97;98519.59;4474298;32;33503;-72
2021/12/25 05:39:55;;;;;;;;;;;;;;;13.70;42.71;98522.59;4472284;31;34253;-73
2021/12/25 05:42:23;;;;;;;;;;;;;;;13.63;43.21;98512.69;4472897;32;34380;-72
2021/12/25 05:44:51;;;;;;;;;;;;;;;13.71;43.25;98515.41;4476378;32;33892;-73
2021/12/25 05:47:19;;;;;;;;;;;;;;;13.47;44.00;98511.62;4478432;32;33347;-73
2021/12/25 05:49:47;;;;;;;;;;;;;;;13.40;44.27;98518.66;4466881;32;34176;-72
2021/12/25 05:52:15;;;;;;;;;;;;;;;13.46;43.78;98514.47;4466978;32;34209;-72
2021/12/25 05:54:42;;;;;;;;;;;;;;;13.34;44.25;98515.78;4476571;32;33811;-72
2021/12/25 05:57:10;;;;;;;;;;;;;;;13.45;43.51;98524.41;4470933;31;33386;-73
2021/12/25 05:59:38;;;;;;;;;;;;;;;13.31;43.54;98526.84;4477053;32;33932;-72
2021/12/25 06:02:06;;;;;;;;;;;;;;;13.27;43.62;98527.16;4466177;32;34174;-73
2021/12/25 06:04:38;;;;;;;;;;;;;;;13.38;43.41;98522.50;4472317;32;34093;-73
2021/12/25 06:07:08;;;;;;;;;;;;;;;13.71;42.59;98523.47;4472190;31;33383;-73
2021/12/25 06:09:35;;;;;;;;;;;;;;;13.64;42.92;98528.66;4475394;32;34189;-72
2021/12/25 06:12:07;;;;;;;;;;;;;;;13.64;42.20;98527.78;4471782;32;34046;-72
2021/12/25 06:14:34;;;;;;;;;;;;;;;13.58;42.33;98542.75;4473485;32;33147;-72
2021/12/25 06:17:02;;;;;;;;;;;;;;;13.59;42.41;98540.91;4471648;32;33196;-72
2021/12/25 06:19:30;;;;;;;;;;;;;;;13.72;41.72;98536.72;4469500;32;33906;-74
2021/12/25 06:22:00;;;;;;;;;;;;;;;13.63;42.07;98539.56;4468616;32;32458;-74
2021/12/25 06:24:29;;;;;;;;;;;;;;;13.84;41.67;98544.50;4464782;32;34517;-73
2021/12/25 06:26:57;;;;;;;;;;;;;;;13.96;41.32;98552.09;4466679;32;34383;-74
2021/12/25 06:29:24;;;;;;;;;;;;;;;13.91;41.20;98550.91;4473221;32;35135;-69
2021/12/25 06:31:54;;;;;;;;;;;;;;;13.86;41.42;98553.22;4469779;32;34494;-73
2021/12/25 06:34:21;;;;;;;;;;;;;;;14.03;41.14;98557.66;4477131;31;33846;-72
2021/12/25 06:36:53;;;;;;;;;;;;;;;14.06;41.31;98572.59;4440345;32;33105;-72
2021/12/25 06:39:21;;;;;;;;;;;;;;;14.21;41.04;98562.88;4435816;32;35024;-73
2021/12/25 06:41:49;;;;;;;;;;;;;;;14.29;41.14;98559.38;4438331;32;34144;-71
2021/12/25 06:44:20;;;;;;;;;;;;;;;14.31;41.42;98562.72;4440621;32;33839;-71
2021/12/25 06:46:49;;;;;;;;;;;;;;;14.50;40.88;98562.38;4440949;32;34361;-73
2021/12/25 06:49:17;;;;;;;;;;;;;;;14.44;40.88;98577.38;4439829;32;34824;-71
2021/12/25 06:51:45;;;;;;;;;;;;;;;14.54;40.88;98571.00;4445095;32;32933;-72
2021/12/25 06:54:14;;;;;;;;;;;;;;;14.49;41.48;98570.66;4435723;32;34151;-71
2021/12/25 06:56:46;;;;;;;;;;;;;;;14.29;42.05;98581.75;4440300;32;33987;-71
2021/12/25 06:59:15;;;;;;;;;;;;;;;13.52;44.50;98578.34;4439305;32;34173;-71
2021/12/25 07:01:42;;;;;;;;;;;;;;;13.74;44.21;98587.69;4437140;32;34476;-73
2021/12/25 07:04:13;;;;;;;;;;;;;;;13.87;44.10;98589.91;4441802;32;35240;-71
2021/12/25 07:06:43;;;;;;;;;;;;;;;14.18;43.63;98595.50;4449505;32;32791;-71
2021/12/25 07:09:11;;;;;;;;;;;;;;;14.48;42.57;98591.34;4442942;32;33056;-71
2021/12/25 07:11:42;;;;;;;;;;;;;;;14.31;42.73;98600.41;4448407;32;33848;-71
2021/12/25 07:14:11;;;;;;;;;;;;;;;14.27;42.97;98604.44;4443234;32;34298;-71
2021/12/25 07:16:43;;;;;;;;;;;;;;;13.40;44.87;98598.44;4446351;32;33048;-71
2021/12/25 07:19:15;;;;;;;;;;;;;;;13.27;45.55;98604.25;4441660;32;34758;-72
2021/12/25 07:21:43;;;;;;;;;;;;;;;13.86;44.44;98601.66;4446462;32;34396;-71
2021/12/25 07:24:13;;;;;;;;;;;;;;;14.09;44.17;98601.88;4449850;32;35110;-71
2021/12/25 07:26:41;;;;;;;;;;;;;;;14.43;43.49;98605.28;4443126;32;33591;-72
2021/12/25 07:29:09;;;;;;;;;;;;;;;14.48;43.50;98602.12;4441322;32;34858;-71
2021/12/25 07:31:36;;;;;;;;;;;;;;;14.54;43.16;98600.63;4446986;32;34102;-71
2021/12/25 07:34:04;;;;;;;;;;;;;;;14.65;42.79;98602.97;4444990;32;32899;-71
2021/12/25 07:36:31;;;;;;;;;;;;;;;14.76;42.47;98605.31;4470389;32;33483;-70
2021/12/25 07:39:00;;;;;;;;;;;;;;;15.07;41.71;98608.16;4470718;32;34899;-72
2021/12/25 07:41:28;;;;;;;;;;;;;;;15.22;41.49;98610.19;4467760;32;34546;-73
2021/12/25 07:43:55;;;;;;;;;;;;;;;15.16;41.63;98611.69;4466483;32;34150;-73
2021/12/25 07:46:23;;;;;;;;;;;;;;;14.99;41.83;98612.72;4469824;32;33445;-72
2021/12/25 07:48:50;;;;;;;;;;;;;;;15.00;41.44;98617.94;4473457;32;35455;-73
2021/12/25 07:51:18;;;;;;;;;;;;;;;14.87;41.34;98618.47;4475379;32;34149;-73
2021/12/25 07:53:45;;;;;;;;;;;;;;;15.06;40.66;98622.66;4473857;32;34357;-71
2021/12/25 07:56:13;;;;;;;;;;;;;;;15.41;39.04;98622.41;4477832;32;34616;-74
2021/12/25 07:58:42;;;;;;;;;;;;;;;15.22;39.09;98621.78;4470679;32;35101;-75
2021/12/25 08:01:09;;;;;;;;;;;;;;;14.80;39.97;98620.16;4472802;32;34452;-75
2021/12/25 08:03:38;;;;;;;;;;;;;;;14.71;40.76;98607.69;4472626;32;34318;-74
2021/12/25 08:06:06;;;;;;;;;;;;;;;14.95;40.26;98612.22;4472081;32;33639;-74
2021/12/25 08:08:33;;;;;;;;;;;;;;;15.19;39.55;98608.66;4473258;32;33848;-74
2021/12/25 08:11:01;;;;;;;;;;;;;;;15.11;39.87;98614.03;4469144;32;34457;-76
2021/12/25 08:13:28;;;;;;;;;;;;;;;15.03;40.22;98603.31;4477448;32;33366;-75
2021/12/25 08:15:55;;;;;;;;;;;;;;;14.92;40.58;98620.63;4473331;32;33438;-75
2021/12/25 08:18:23;;;;;;;;;;;;;;;15.11;40.22;98614.03;4476253;32;34260;-74
2021/12/25 08:21:04;;;;;;;;;;;;;;;14.86;41.11;98615.91;4478673;32;34098;-73
2021/12/25 08:23:50;;;;;;;;;;;;;;;15.08;40.51;98615.22;4472488;32;34153;-73
2021/12/25 08:26:27;;;;;;;;;;;;;;;14.94;41.17;98615.94;4477092;31;33449;-75
2021/12/25 08:28:57;;;;;;;;;;;;;;;14.98;41.18;98624.50;4476215;32;33308;-75
2021/12/25 08:31:32;;;;;;;;;;;;;;;14.98;41.46;98625.34;4475599;32;34345;-74
2021/12/25 08:34:03;;;;;;;;;;;;;;;15.19;41.11;98616.75;4475506;32;34178;-74
2021/12/25 08:36:33;;;;;;;;;;;;;;;15.26;40.89;98615.03;4473212;32;32922;-74
2021/12/25 08:39:01;;;;;;;;;;;;;;;15.19;41.01;98602.44;4479932;32;35179;-75
2021/12/25 08:41:30;;;;;;;;;;;;;;;15.08;41.30;98603.59;4476334;32;36048;-75
2021/12/25 08:44:05;;;;;;;;;;;;;;;15.32;40.73;98595.47;4471961;32;33691;-76
2021/12/25 08:46:45;;;;;;;;;;;;;;;15.55;40.18;98582.09;4474803;32;33659;-75
2021/12/25 08:49:17;;;;;;;;;;;;;;;15.69;40.05;98580.53;4480605;32;35188;-76
2021/12/25 08:51:44;;;;;;;;;;;;;;;15.66;40.26;98582.72;4476155;32;33946;-74
2021/12/25 08:54:12;;;;;;;;;;;;;;;15.33;41.34;98591.75;4474588;32;34645;-76
2021/12/25 08:56:40;;;;;;;;;;;;;;;15.67;40.77;98581.75;4476920;32;33247;-77
2021/12/25 08:59:08;;;;;;;;;;;;;;;15.79;40.49;98575.78;4474758;32;35028;-77
2021/12/25 09:01:35;;;;;;;;;;;;;;;15.88;40.46;98562.22;4473879;32;35211;-77
2021/12/25 09:04:03;;;;;;;;;;;;;;;15.89;40.25;98569.28;4468768;32;32751;-76
2021/12/25 09:06:31;;;;;;;;;;;;;;;15.69;41.04;98591.31;4475697;32;31347;-75
2021/12/25 09:09:02;;;;;;;;;;;;;;;15.87;40.74;98601.88;4477145;32;34203;-75
2021/12/25 09:11:29;;;;;;;;;;;;;;;16.02;40.14;98597.41;4473189;32;34355;-77
2021/12/25 09:13:57;;;;;;;;;;;;;;;15.69;41.01;98602.09;4475598;32;33974;-76
2021/12/25 09:16:24;;;;;;;;;;;;;;;15.88;40.81;98597.31;4476578;32;32329;-76
2021/12/25 09:18:52;;;;;;;;;;;;;;;15.87;41.15;98592.94;4472701;32;34192;-75
2021/12/25 09:21:19;;;;;;;;;;;;;;;15.81;41.52;98583.69;4474529;32;33791;-75
2021/12/25 09:23:47;;;;;;;;;;;;;;;16.07;41.07;98575.28;4474919;32;34030;-74
2021/12/25 09:26:14;;;;;;;;;;;;;;;16.13;41.02;98579.12;4481201;32;34276;-74
2021/12/25 09:28:42;;;;;;;;;;;;;;;16.28;40.93;98570.06;4473629;32;34088;-75
2021/12/25 09:31:09;;;;;;;;;;;;;;;16.40;40.68;98575.87;4442361;32;985753;-74
2021/12/25 09:33:37;;;;;;;;;;;;;;;16.60;40.35;98573.53;4476825;32;34208;-75
2021/12/25 09:36:11;;;;;;;;;;;;;;;16.80;40.20;98571.19;4471766;32;33613;-75
2021/12/25 09:38:38;;;;;;;;;;;;;;;17.05;39.94;98573.69;4473975;32;34122;-74
2021/12/25 09:41:07;;;;;;;;;;;;;;;17.18;39.58;98568.47;4473985;32;35236;-75
2021/12/25 09:43:35;;;;;;;;;;;;;;;17.40;39.43;98564.84;4478615;32;34258;-75
2021/12/25 09:46:02;;;;;;;;;;;;;;;17.60;39.31;98565.09;4476631;32;33171;-74
2021/12/25 09:48:30;;;;;;;;;;;;;;;17.97;38.65;98567.84;4474808;32;32808;-75
2021/12/25 09:50:58;;;;;;;;;;;;;;;18.08;38.20;98562.78;4472672;32;34205;-74
2021/12/25 09:53:28;;;;;;;;;;;;;;;17.98;38.25;98567.69;4477038;32;34213;-74
2021/12/25 09:55:55;;;;;;;;;;;;;;;17.72;38.77;98562.75;4476734;32;33335;-75
2021/12/25 09:58:23;;;;;;;;;;;;;;;17.59;39.05;98559.84;4475506;32;34268;-75
2021/12/25 10:00:53;;;;;;;;;;;;;;;17.69;38.74;98555.84;4470903;32;34374;-76
2021/12/25 10:03:23;;;;;;;;;;;;;;;17.86;38.52;98563.78;4473070;32;32968;-77
2021/12/25 10:05:51;;;;;;;;;;;;;;;17.97;38.53;98560.56;4474178;32;33237;-74
2021/12/25 10:08:20;;;;;;;;;;;;;;;18.22;38.33;98562.94;4473263;32;34868;-74
2021/12/25 10:10:55;;;;;;;;;;;;;;;18.71;37.51;98565.66;4468409;32;35280;-74
2021/12/25 10:13:27;;;;;;;;;;;;;;;19.09;37.04;98558.06;4474543;32;33094;-76
2021/12/25 10:16:17;;;;;;;;;;;;;;;19.76;36.10;98555.75;4475672;32;34254;-76
2021/12/25 10:18:45;;;;;;;;;;;;;;;20.05;35.26;98551.91;4474273;32;35560;-76
2021/12/25 10:21:20;;;;;;;;;;;;;;;20.58;34.15;98548.50;4472968;32;34254;-74
2021/12/25 10:24:06;;;;;;;;;;;;;;;21.07;33.64;98553.47;4478693;32;35184;-76
2021/12/25 10:26:35;;;;;;;;;;;;;;;21.75;32.80;98555.84;4477538;32;34523;-74
2021/12/25 10:29:16;;;;;;;;;;;;;;;22.03;32.36;98550.06;4472494;32;33990;-78
2021/12/25 10:31:44;;;;;;;;;;;;;;;22.11;31.56;98551.69;4472227;32;34435;-77
2021/12/25 10:34:12;;;;;;;;;;;;;;;22.61;31.30;98554.56;4471038;32;34248;-74
2021/12/25 10:36:40;;;;;;;;;;;;;;;23.23;30.21;98552.78;4470159;32;33184;-74
2021/12/25 10:39:09;;;;;;;;;;;;;;;23.16;30.07;98552.00;4470692;32;33740;-74
2021/12/25 10:41:39;;;;;;;;;;;;;;;22.81;30.41;98543.47;4472181;32;34301;-76
2021/12/25 10:44:11;;;;;;;;;;;;;;;22.68;30.73;98535.41;4467463;32;32500;-74
2021/12/25 10:46:55;;;;;;;;;;;;;;;22.32;31.52;98543.22;4473829;32;34625;-73
2021/12/25 10:49:26;;;;;;;;;;;;;;;22.29;31.41;98530.03;4466326;32;35028;-76
2021/12/25 10:51:54;;;;;;;;;;;;;;;22.56;31.03;98530.66;4475392;32;34484;-76
2021/12/25 10:54:41;;;;;;;;;;;;;;;22.59;31.25;98536.75;4466938;32;35302;-74
2021/12/25 10:57:10;;;;;;;;;;;;;;;22.00;32.02;98525.97;4478330;32;33152;-75
2021/12/25 10:59:41;;;;;;;;;;;;;;;22.13;31.85;98529.69;4472496;32;32831;-74
2021/12/25 11:02:08;;;;;;;;;;;;;;;22.62;31.13;98522.66;4468811;32;34300;-74
2021/12/25 11:04:36;;;;;;;;;;;;;;;22.95;30.48;98525.13;4465540;32;34541;-76
2021/12/25 11:07:11;;;;;;;;;;;;;;;23.00;30.60;98509.75;4469934;32;34245;-75
2021/12/25 11:09:39;;;;;;;;;;;;;;;22.98;30.91;98511.88;4479653;32;34326;-76
2021/12/25 11:12:34;;;;;;;;;;;;;;;23.13;30.42;98511.53;4468642;32;34967;-76
2021/12/25 11:15:13;;;;;;;;;;;;;;;23.23;30.30;98511.00;4470253;32;34074;-74
2021/12/25 11:17:42;;;;;;;;;;;;;;;23.15;30.66;98505.84;4471330;32;34299;-75
2021/12/25 11:20:17;;;;;;;;;;;;;;;22.96;30.74;98503.09;4466932;32;33587;-77
2021/12/25 11:22:52;;;;;;;;;;;;;;;22.74;31.23;98493.63;4474107;32;34098;-76
2021/12/25 11:25:21;;;;;;;;;;;;;;;22.97;31.11;98493.84;4467084;32;34447;-77
2021/12/25 11:27:49;;;;;;;;;;;;;;;23.18;30.58;98489.84;4470607;32;33595;-75
2021/12/25 11:30:18;;;;;;;;;;;;;;;23.28;30.19;98480.31;4470821;32;33861;-74
2021/12/25 11:32:47;;;;;;;;;;;;;;;23.12;30.15;98474.38;4467228;32;33445;-74
2021/12/25 11:35:15;;;;;;;;;;;;;;;22.49;31.45;98474.53;4474779;32;33874;-76
2021/12/25 11:37:43;;;;;;;;;;;;;;;22.65;30.92;98470.41;4465524;32;33257;-74
2021/12/25 11:40:11;;;;;;;;;;;;;;;21.77;32.60;98468.50;4470801;32;34867;-78
2021/12/25 11:42:42;;;;;;;;;;;;;;;22.23;32.22;98464.66;4467707;32;34308;-79
2021/12/25 11:45:11;;;;;;;;;;;;;;;21.78;32.72;98462.00;4469397;32;34463;-77
2021/12/25 11:47:39;;;;;;;;;;;;;;;21.08;33.30;98459.09;4472030;32;32799;-79
2021/12/25 11:50:13;;;;;;;;;;;;;;;20.26;34.85;98458.53;4470518;32;32780;-79
2021/12/25 11:52:51;;;;;;;;;;;;;;;20.10;35.18;98454.34;4475405;32;34355;-79
2021/12/25 11:55:48;;;;;;;;;;;;;;;19.94;35.47;98447.44;4469177;32;33962;-79
2021/12/25 11:58:38;;;;;;;;;;;;;;;20.08;35.39;98445.56;4465940;32;32799;-82
2021/12/25 12:01:18;;;;;;;;;;;;;;;19.96;35.80;98445.31;4475815;32;34182;-79
2021/12/25 12:03:52;;;;;;;;;;;;;;;20.05;35.90;98442.44;4471133;32;34367;-76
2021/12/25 12:06:40;;;;;;;;;;;;;;;19.98;36.04;98437.81;4475959;32;34337;-76
2021/12/25 12:09:10;;;;;;;;;;;;;;;20.06;36.16;98444.09;4475502;32;33414;-77
2021/12/25 12:11:43;;;;;;;;;;;;;;;19.86;36.25;98449.50;4472114;32;34776;-76
2021/12/25 12:14:17;;;;;;;;;;;;;;;19.84;36.67;98440.72;4472931;32;34469;-79
2021/12/25 12:16:50;;;;;;;;;;;;;;;19.96;36.13;98449.94;4467670;32;33973;-81
2021/12/25 12:19:38;;;;;;;;;;;;;;;19.72;36.74;98445.91;4469079;32;33319;-77
2021/12/25 12:22:22;;;;;;;;;;;;;;;19.82;36.50;98450.97;4476344;32;34236;-78
2021/12/25 12:27:42;;;;;;;;;;;;;;;19.87;36.47;98445.72;4474882;32;35157;-76
2021/12/25 12:30:11;;;;;;;;;;;;;;;19.98;36.10;98447.84;4467416;32;32695;-79
2021/12/25 12:32:43;;;;;;;;;;;;;;;19.53;36.79;98450.22;4473664;32;34746;-77
2021/12/25 12:35:28;;;;;;;;;;;;;;;19.45;36.86;98448.50;4471967;32;34213;-79
2021/12/25 12:38:15;;;;;;;;;;;;;;;19.38;37.07;98449.53;4467325;32;34239;-76
2021/12/25 12:40:42;;;;;;;;;;;;;;;19.52;37.03;98448.56;4467624;32;33547;-77
2021/12/25 12:43:13;;;;;;;;;;;;;;;19.62;36.79;98446.28;4471268;32;34298;-79
2021/12/25 12:45:47;;;;;;;;;;;;;;;19.07;37.97;98450.88;4451341;32;33615;-78
2021/12/25 12:48:19;;;;;;;;;;;;;;;19.66;36.96;98449.44;4466865;32;33135;-73
2021/12/25 12:50:55;;;;;;;;;;;;;;;19.44;37.18;98454.16;4460518;31;33208;-76
2021/12/25 12:53:23;;;;;;;;;;;;;;;19.57;37.06;98453.34;4468391;32;34995;-75
2021/12/25 12:55:52;;;;;;;;;;;;;;;19.55;37.04;98450.88;4467699;31;33799;-76
2021/12/25 12:58:20;;;;;;;;;;;;;;;19.76;36.65;98455.31;4474605;32;35254;-75
2021/12/25 13:00:53;;;;;;;;;;;;;;;19.61;36.92;98455.44;4468809;32;33468;-74
2021/12/25 13:03:22;;;;;;;;;;;;;;;19.62;36.25;98446.28;4467339;32;34318;-74
2021/12/25 13:05:55;;;;;;;;;;;;;;;19.77;35.62;98454.28;4470348;32;33755;-75
2021/12/25 13:08:24;;;;;;;;;;;;;;;19.92;35.16;98454.94;4467880;32;34105;-78
2021/12/25 13:10:52;;;;;;;;;;;;;;;19.96;34.98;98450.75;4477836;32;33221;-76
2021/12/25 13:13:29;;;;;;;;;;;;;;;19.88;35.37;98450.12;4468085;32;34000;-76
2021/12/25 13:16:20;;;;;;;;;;;;;;;19.88;35.35;98439.28;4470774;32;34286;-77
2021/12/25 13:18:49;;;;;;;;;;;;;;;20.06;35.16;98427.78;4473156;31;34354;-75
2021/12/25 13:21:18;;;;;;;;;;;;;;;19.99;34.57;98425.06;4468529;32;32184;-74
2021/12/25 13:23:50;;;;;;;;;;;;;;;19.58;35.56;98423.28;4476452;32;34194;-76
2021/12/25 13:26:31;;;;;;;;;;;;;;;19.58;36.13;98423.28;4467572;32;32980;-78
2021/12/25 13:29:00;;;;;;;;;;;;;;;19.96;35.65;98429.03;4471326;31;32683;-76
2021/12/25 13:31:28;;;;;;;;;;;;;;;19.05;38.20;98432.06;4477980;32;34271;-76
2021/12/25 13:33:58;;;;;;;;;;;;;;;19.45;37.81;98434.09;4474723;32;33615;-77
2021/12/25 13:36:28;;;;;;;;;;;;;;;19.13;39.11;98433.75;4473641;32;35286;-74
2021/12/25 13:39:05;;;;;;;;;;;;;;;19.36;38.89;98440.75;4468528;32;32459;-75
2021/12/25 13:41:42;;;;;;;;;;;;;;;19.14;39.41;98434.62;4471286;32;33244;-75
2021/12/25 13:44:17;;;;;;;;;;;;;;;19.05;39.54;98437.50;4466590;32;33881;-75
2021/12/25 13:46:52;;;;;;;;;;;;;;;18.58;40.81;98438.22;4467799;32;35347;-73
2021/12/25 13:49:26;;;;;;;;;;;;;;;18.97;39.88;98437.66;4469671;32;34639;-77
2021/12/25 13:51:53;;;;;;;;;;;;;;;18.78;40.16;98427.53;4472762;32;33664;-79
2021/12/25 13:54:22;;;;;;;;;;;;;;;17.87;42.24;98435.53;4472252;32;34279;-74
2021/12/25 13:56:50;;;;;;;;;;;;;;;18.81;40.16;98421.69;4474282;32;33875;-74
2021/12/25 13:59:17;;;;;;;;;;;;;;;18.83;40.15;98425.91;4467801;32;32883;-73
2021/12/25 14:01:45;;;;;;;;;;;;;;;18.98;39.81;98431.19;4473477;31;32271;-72
2021/12/25 14:04:13;;;;;;;;;;;;;;;18.16;41.29;98429.13;4470309;32;33656;-74
2021/12/25 14:06:41;;;;;;;;;;;;;;;18.61;40.57;98443.22;4472276;31;34635;-76
2021/12/25 14:09:08;;;;;;;;;;;;;;;18.83;40.10;98435.91;4473516;32;34093;-75
2021/12/25 14:11:36;;;;;;;;;;;;;;;18.56;40.63;98451.97;4472053;32;32055;-74
2021/12/25 14:14:06;;;;;;;;;;;;;;;18.65;40.52;98452.66;4468919;32;34410;-73
2021/12/25 14:16:34;;;;;;;;;;;;;;;18.79;40.12;98450.91;4466132;32;32486;-72
2021/12/25 14:19:06;;;;;;;;;;;;;;;19.19;39.36;98454.66;4469301;32;33970;-78
2021/12/25 14:21:33;;;;;;;;;;;;;;;19.11;39.43;98451.28;4470557;32;34187;-77
2021/12/25 14:24:02;;;;;;;;;;;;;;;19.01;39.66;98448.94;4474948;32;34183;-75